Time;durP1;ratioP1;P1;durP2;ratioP2;P2;SDS_P1;SDS_P2;PMS_P1;PMS_P2;Temp;Humidity;BMP_temperature;BMP_pressure;BME280_temperature;BME280_humidity;BME280_pressure;Samples;Min_cycle;Max_cycle;Signal;HPM_P1;HPM_P2
2022/03/01 00:02:23;;;;;;;17.17;10.85;;;-2.10;99.90;;;;;;5131199;28;20023;-59
2022/03/01 00:04:49;;;;;;;12.48;8.50;;;-2.20;99.90;;;;;;5131553;28;20031;-60
2022/03/01 00:07:14;;;;;;;16.80;8.75;;;-2.10;99.90;;;;;;5131090;28;20478;-59
2022/03/01 00:09:40;;;;;;;16.90;10.10;;;-2.10;99.90;;;;;;5131288;28;20027;-59
2022/03/01 00:12:08;;;;;;;17.42;9.70;;;-2.20;99.90;;;;;;5131314;28;20027;-59
2022/03/01 00:14:33;;;;;;;13.35;9.55;;;-2.10;99.90;;;;;;5131320;28;20202;-59
2022/03/01 00:16:59;;;;;;;13.65;9.00;;;-2.10;99.90;;;;;;5131144;28;20018;-59
2022/03/01 00:19:27;;;;;;;11.63;8.30;;;-2.20;99.90;;;;;;5130963;28;20060;-59
2022/03/01 00:21:53;;;;;;;14.68;9.60;;;-2.20;99.90;;;;;;5131071;28;20472;-59
2022/03/01 00:24:19;;;;;;;15.57;9.50;;;-2.20;99.90;;;;;;5131232;28;20498;-59
2022/03/01 00:26:45;;;;;;;13.00;8.60;;;-2.20;99.90;;;;;;5131115;27;20023;-59
2022/03/01 00:29:11;;;;;;;15.70;8.60;;;-2.20;99.90;;;;;;5134793;27;20367;-59
2022/03/01 00:31:37;;;;;;;12.63;8.68;;;-2.20;99.90;;;;;;5135135;27;20027;-59
2022/03/01 00:34:02;;;;;;;23.27;9.75;;;-2.20;99.90;;;;;;5135138;27;20050;-59
2022/03/01 00:36:28;;;;;;;13.23;8.40;;;-2.30;99.90;;;;;;5134964;27;20023;-59
2022/03/01 00:38:54;;;;;;;11.00;7.88;;;-2.30;99.90;;;;;;5135117;27;20085;-60
2022/03/01 00:41:19;;;;;;;18.85;8.43;;;-2.30;99.90;;;;;;5134896;27;20027;-59
2022/03/01 00:43:45;;;;;;;11.70;8.13;;;-2.30;99.90;;;;;;5135022;27;20023;-59
2022/03/01 00:46:11;;;;;;;15.05;7.78;;;-2.30;99.90;;;;;;5134891;27;20106;-60
2022/03/01 00:48:36;;;;;;;15.05;8.38;;;-2.30;99.90;;;;;;5134820;27;20080;-59
2022/03/01 00:51:02;;;;;;;18.33;8.30;;;-2.30;99.90;;;;;;5134774;27;20019;-59
2022/03/01 00:53:28;;;;;;;15.55;9.10;;;-2.40;99.90;;;;;;5134842;27;20027;-59
2022/03/01 00:55:53;;;;;;;11.07;8.10;;;-2.40;99.90;;;;;;5134735;27;20030;-59
2022/03/01 00:58:28;;;;;;;11.05;8.25;;;-2.40;99.90;;;;;;5134755;27;20076;-59
2022/03/01 01:00:54;;;;;;;12.23;8.18;;;-2.40;99.90;;;;;;5134678;27;20027;-59
2022/03/01 01:03:19;;;;;;;18.50;10.25;;;-2.40;99.90;;;;;;5134432;27;20034;-59
2022/03/01 01:05:45;;;;;;;11.02;8.50;;;-2.50;99.90;;;;;;5134659;27;20027;-59
2022/03/01 01:08:11;;;;;;;15.60;9.15;;;-2.40;99.90;;;;;;5116171;27;20042;-60
2022/03/01 01:10:36;;;;;;;12.50;9.68;;;-2.50;99.90;;;;;;5134358;27;20023;-60
2022/03/01 01:13:02;;;;;;;13.98;9.40;;;-2.50;99.90;;;;;;5134338;27;20028;-59
2022/03/01 01:15:28;;;;;;;14.13;9.43;;;-2.50;99.90;;;;;;5115831;27;20034;-59
2022/03/01 01:17:53;;;;;;;14.40;9.90;;;-2.50;99.90;;;;;;5134194;27;20039;-59
2022/03/01 01:20:19;;;;;;;15.35;9.45;;;-2.50;99.90;;;;;;5134212;27;20161;-59
2022/03/01 01:22:45;;;;;;;13.05;9.63;;;-2.50;99.90;;;;;;5134397;27;20026;-60
2022/03/01 01:25:22;;;;;;;15.32;9.02;;;-2.50;99.90;;;;;;5134115;27;20227;-59
2022/03/01 01:27:50;;;;;;;14.73;10.20;;;-2.50;99.90;;;;;;5133994;27;20148;-60
2022/03/01 01:30:18;;;;;;;15.77;9.77;;;-2.60;99.90;;;;;;5134136;27;20079;-59
2022/03/01 01:32:45;;;;;;;17.20;9.00;;;-2.60;99.90;;;;;;5133986;27;20023;-59
2022/03/01 01:35:12;;;;;;;12.40;8.13;;;-2.60;99.90;;;;;;5133790;27;20042;-60
2022/03/01 01:37:39;;;;;;;13.25;10.15;;;-2.70;99.90;;;;;;5115447;27;20023;-59
2022/03/01 01:40:07;;;;;;;22.55;10.75;;;-2.70;99.90;;;;;;5133746;27;20016;-59
2022/03/01 01:42:33;;;;;;;21.48;10.23;;;-2.70;99.90;;;;;;5133631;27;20022;-60
2022/03/01 01:45:01;;;;;;;16.13;9.57;;;-2.70;99.90;;;;;;5133704;27;20027;-60
2022/03/01 01:47:26;;;;;;;16.10;10.30;;;-2.80;99.90;;;;;;5133630;27;20075;-60
2022/03/01 01:49:52;;;;;;;13.98;9.25;;;-2.80;99.90;;;;;;5133667;27;20031;-60
2022/03/01 01:52:18;;;;;;;12.25;8.43;;;-2.70;99.90;;;;;;5133667;27;20027;-60
2022/03/01 01:54:44;;;;;;;15.18;9.70;;;-2.70;99.90;;;;;;5133673;27;20027;-59
2022/03/01 01:57:19;;;;;;;14.65;9.45;;;-2.70;99.90;;;;;;5133431;27;20026;-59
2022/03/01 01:59:46;;;;;;;17.33;10.77;;;-2.70;99.90;;;;;;5133435;27;20027;-60
2022/03/01 02:02:17;;;;;;;12.80;9.25;;;-2.70;99.90;;;;;;5115085;27;20019;-59
2022/03/01 02:04:43;;;;;;;13.50;8.32;;;-2.70;99.90;;;;;;5133455;27;20027;-60
2022/03/01 02:07:10;;;;;;;15.43;9.68;;;-2.70;99.90;;;;;;5133443;27;20027;-59
2022/03/01 02:09:36;;;;;;;13.35;9.43;;;-2.70;99.90;;;;;;5133229;27;20027;-60
2022/03/01 02:12:02;;;;;;;17.50;10.07;;;-2.70;99.90;;;;;;5133009;27;20034;-59
2022/03/01 02:14:31;;;;;;;14.60;9.07;;;-2.70;99.90;;;;;;5133003;27;20023;-59
2022/03/01 02:16:59;;;;;;;21.40;9.77;;;-2.80;99.90;;;;;;5133069;27;20015;-60
2022/03/01 02:19:24;;;;;;;16.17;8.73;;;-2.80;99.90;;;;;;5133062;27;20034;-60
2022/03/01 02:21:55;;;;;;;14.63;9.52;;;-2.80;99.90;;;;;;5133102;27;20023;-60
2022/03/01 02:24:22;;;;;;;12.73;8.48;;;-2.80;99.90;;;;;;5132900;27;20110;-60
2022/03/01 02:26:47;;;;;;;17.10;9.68;;;-2.80;99.90;;;;;;5132945;27;20483;-60
2022/03/01 02:29:13;;;;;;;16.83;9.60;;;-2.90;99.90;;;;;;5133073;27;20109;-60
2022/03/01 02:31:39;;;;;;;17.27;10.55;;;-2.90;99.90;;;;;;5114359;27;20080;-59
2022/03/01 02:34:06;;;;;;;11.68;8.43;;;-2.90;99.90;;;;;;5132842;27;20481;-60
2022/03/01 02:36:32;;;;;;;15.48;9.35;;;-2.90;99.90;;;;;;5132691;27;20054;-60
2022/03/01 02:38:58;;;;;;;13.68;8.80;;;-3.00;99.90;;;;;;5132682;27;20031;-59
2022/03/01 02:41:25;;;;;;;18.02;10.18;;;-3.00;99.90;;;;;;5132562;27;20023;-60
2022/03/01 02:43:51;;;;;;;11.57;8.32;;;-3.00;99.90;;;;;;5114265;27;20157;-60
2022/03/01 02:46:17;;;;;;;17.00;10.02;;;-3.10;99.90;;;;;;5132410;27;20469;-60
2022/03/01 02:48:42;;;;;;;16.50;8.68;;;-3.20;99.90;;;;;;5132632;27;20035;-60
2022/03/01 02:51:08;;;;;;;13.60;10.07;;;-3.20;99.90;;;;;;5131929;27;20513;-59
2022/03/01 02:53:36;;;;;;;12.25;8.90;;;-3.20;99.90;;;;;;5132167;27;20027;-59
2022/03/01 02:56:03;;;;;;;14.02;8.73;;;-3.20;99.90;;;;;;5132376;27;20068;-60
2022/03/01 02:58:28;;;;;;;16.75;9.40;;;-3.10;99.90;;;;;;5132464;27;20064;-59
2022/03/01 03:00:54;;;;;;;15.48;9.57;;;-3.10;99.90;;;;;;5132319;27;20487;-59
2022/03/01 03:03:20;;;;;;;17.95;9.35;;;-3.20;99.90;;;;;;5132081;27;20390;-59
2022/03/01 03:05:46;;;;;;;14.55;9.20;;;-3.20;99.90;;;;;;5132207;27;20054;-59
2022/03/01 03:08:11;;;;;;;12.82;8.75;;;-3.10;99.90;;;;;;5132554;27;20494;-59
2022/03/01 03:10:37;;;;;;;13.25;8.38;;;-3.10;99.90;;;;;;5131877;27;20504;-59
2022/03/01 03:13:04;;;;;;;15.25;8.95;;;-3.10;99.90;;;;;;5132268;27;20050;-59
2022/03/01 03:15:31;;;;;;;16.58;9.52;;;-3.10;99.90;;;;;;5131768;27;20034;-59
2022/03/01 03:17:57;;;;;;;11.98;9.10;;;-3.10;99.90;;;;;;5131624;27;20055;-59
2022/03/01 03:20:29;;;;;;;16.38;9.05;;;-3.10;99.90;;;;;;5131027;28;20019;-58
2022/03/01 03:22:54;;;;;;;17.45;8.90;;;-3.10;99.90;;;;;;5112496;28;20513;-59
2022/03/01 03:25:26;;;;;;;18.83;9.20;;;-3.10;99.90;;;;;;5130927;28;20080;-60
2022/03/01 03:27:52;;;;;;;15.85;10.27;;;-3.10;99.90;;;;;;5131192;28;20022;-59
2022/03/01 03:30:18;;;;;;;17.65;9.30;;;-3.20;99.90;;;;;;5130761;28;20408;-59
2022/03/01 03:32:44;;;;;;;17.15;11.05;;;-3.10;99.90;;;;;;5130913;28;20521;-59
2022/03/01 03:35:10;;;;;;;12.88;8.32;;;-3.20;99.90;;;;;;5130900;28;20067;-59
2022/03/01 03:37:36;;;;;;;17.00;9.63;;;-3.20;99.90;;;;;;5112484;28;20438;-59
2022/03/01 03:40:03;;;;;;;16.70;9.20;;;-3.30;99.90;;;;;;5130651;28;20068;-60
2022/03/01 03:42:29;;;;;;;14.25;9.80;;;-3.30;99.90;;;;;;5130744;28;20106;-59
2022/03/01 03:44:55;;;;;;;13.63;9.57;;;-3.40;99.90;;;;;;5130845;28;20023;-60
2022/03/01 03:47:21;;;;;;;15.27;10.52;;;-3.40;99.90;;;;;;5130558;28;20076;-59
2022/03/01 03:49:48;;;;;;;15.05;10.52;;;-3.50;99.90;;;;;;5131202;28;20019;-60
2022/03/01 03:52:13;;;;;;;20.13;9.20;;;-3.50;99.90;;;;;;5130577;28;20562;-60
2022/03/01 03:54:39;;;;;;;21.02;11.02;;;-3.60;99.90;;;;;;5130524;28;20019;-59
2022/03/01 03:57:08;;;;;;;14.65;10.50;;;-3.60;99.90;;;;;;5130678;28;20513;-59
2022/03/01 03:59:34;;;;;;;20.45;11.07;;;-3.60;99.90;;;;;;5130427;28;20019;-59
2022/03/01 04:02:02;;;;;;;16.75;9.73;;;-3.60;99.90;;;;;;5129366;27;20098;-59
2022/03/01 04:04:27;;;;;;;15.02;10.35;;;-3.50;99.90;;;;;;5130371;28;20034;-59
2022/03/01 04:06:53;;;;;;;13.85;9.15;;;-3.50;99.90;;;;;;5130355;28;20015;-59
2022/03/01 04:09:19;;;;;;;16.27;10.55;;;-3.50;99.90;;;;;;5130431;28;20027;-60
2022/03/01 04:11:44;;;;;;;18.65;9.80;;;-3.50;99.90;;;;;;5130378;28;20019;-59
2022/03/01 04:14:10;;;;;;;15.75;10.98;;;-3.50;99.90;;;;;;5130340;28;20027;-59
2022/03/01 04:16:36;;;;;;;13.35;9.45;;;-3.50;99.90;;;;;;5130313;28;20054;-59
2022/03/01 04:19:02;;;;;;;19.52;9.73;;;-3.50;99.90;;;;;;5088224;28;1140090;-59
2022/03/01 04:21:28;;;;;;;20.02;10.88;;;-3.50;99.90;;;;;;5112505;28;20031;-59
2022/03/01 04:23:54;;;;;;;16.58;10.68;;;-3.60;99.90;;;;;;5131181;28;20030;-60
2022/03/01 04:26:19;;;;;;;17.90;9.93;;;-3.60;99.90;;;;;;5131069;28;20031;-60
2022/03/01 04:28:45;;;;;;;16.60;9.35;;;-3.60;99.90;;;;;;5131136;28;20027;-59
2022/03/01 04:31:11;;;;;;;16.70;11.18;;;-3.70;99.90;;;;;;5131106;28;20030;-60
2022/03/01 04:33:37;;;;;;;19.25;10.35;;;-3.70;99.90;;;;;;5131323;28;20027;-58
2022/03/01 04:36:03;;;;;;;18.90;10.00;;;-3.80;99.90;;;;;;5131023;28;20031;-60
2022/03/01 04:38:30;;;;;;;17.80;10.48;;;-3.80;99.90;;;;;;5130865;28;20019;-59
2022/03/01 04:40:57;;;;;;;12.93;9.90;;;-3.80;99.90;;;;;;5131226;28;20067;-59
2022/03/01 04:43:22;;;;;;;16.92;10.68;;;-3.80;99.90;;;;;;5130827;28;20077;-60
2022/03/01 04:45:49;;;;;;;12.98;9.02;;;-3.80;99.90;;;;;;5131033;28;20027;-59
2022/03/01 04:48:14;;;;;;;15.65;10.40;;;-3.80;99.90;;;;;;5130820;28;20023;-59
2022/03/01 04:50:40;;;;;;;14.55;9.60;;;-3.80;99.90;;;;;;5130959;28;20035;-58
2022/03/01 04:53:06;;;;;;;15.88;9.93;;;-3.80;99.90;;;;;;5130800;28;20034;-58
2022/03/01 04:55:32;;;;;;;14.20;9.40;;;-3.80;99.90;;;;;;5130583;28;20019;-59
2022/03/01 04:57:58;;;;;;;17.27;10.25;;;-3.90;99.90;;;;;;5131203;28;20358;-58
2022/03/01 05:00:25;;;;;;;22.10;10.77;;;-3.80;99.90;;;;;;5130631;28;20382;-59
2022/03/01 05:02:51;;;;;;;21.38;11.50;;;-3.80;99.90;;;;;;5130872;28;20103;-59
2022/03/01 05:05:17;;;;;;;14.55;10.02;;;-3.80;99.90;;;;;;5130683;28;20543;-59
2022/03/01 05:07:46;;;;;;;16.23;9.63;;;-3.90;99.90;;;;;;5130842;28;20016;-59
2022/03/01 05:10:13;;;;;;;22.38;9.75;;;-3.90;99.90;;;;;;5130653;28;20385;-59
2022/03/01 05:12:48;;;;;;;23.15;10.27;;;-4.00;99.90;;;;;;5130657;27;20028;-59
2022/03/01 05:15:15;;;;;;;25.33;10.52;;;-4.00;99.90;;;;;;5134075;27;20030;-58
2022/03/01 05:17:41;;;;;;;22.95;10.85;;;-4.00;99.90;;;;;;5134059;27;20050;-59
2022/03/01 05:20:08;;;;;;;33.22;17.38;;;-4.10;99.90;;;;;;5134166;27;20019;-57
2022/03/01 05:22:33;;;;;;;26.60;13.05;;;-4.10;99.90;;;;;;5134331;27;20104;-58
2022/03/01 05:25:01;;;;;;;25.35;13.65;;;-4.20;99.90;;;;;;5134222;27;20031;-56
2022/03/01 05:27:28;;;;;;;22.23;11.80;;;-4.30;99.90;;;;;;5134018;27;20027;-58
2022/03/01 05:29:54;;;;;;;24.08;12.52;;;-4.30;99.90;;;;;;5134182;27;20027;-59
2022/03/01 05:32:20;;;;;;;19.63;11.73;;;-4.40;99.90;;;;;;5133862;27;20126;-59
2022/03/01 05:34:46;;;;;;;22.10;11.88;;;-4.40;99.90;;;;;;5133874;27;20027;-58
2022/03/01 05:37:12;;;;;;;27.90;15.90;;;-4.50;99.90;;;;;;5134024;27;20012;-59
2022/03/01 05:39:38;;;;;;;24.48;13.18;;;-4.50;99.90;;;;;;5133775;27;20031;-58
2022/03/01 05:42:04;;;;;;;62.85;29.38;;;-4.60;99.90;;;;;;5133899;27;20003;-57
2022/03/01 05:44:30;;;;;;;83.05;37.28;;;-4.60;99.90;;;;;;5133630;27;20381;-59
2022/03/01 05:46:55;;;;;;;68.68;29.58;;;-4.60;99.90;;;;;;5133654;27;20022;-57
2022/03/01 05:49:21;;;;;;;48.10;24.77;;;-4.60;99.90;;;;;;5133541;27;20020;-59
2022/03/01 05:51:47;;;;;;;49.53;22.70;;;-4.60;99.90;;;;;;5115400;27;20549;-59
2022/03/01 05:54:13;;;;;;;32.92;17.80;;;-4.60;99.90;;;;;;5133555;27;20110;-58
2022/03/01 05:56:38;;;;;;;27.25;13.98;;;-4.60;99.90;;;;;;5133687;27;20035;-58
2022/03/01 05:59:04;;;;;;;25.00;13.50;;;-4.50;99.90;;;;;;5133650;27;20438;-59
2022/03/01 06:01:30;;;;;;;31.30;14.57;;;-4.50;99.90;;;;;;5133322;27;20015;-57
2022/03/01 06:03:56;;;;;;;31.25;16.02;;;-4.40;99.90;;;;;;5115109;27;20371;-58
2022/03/01 06:06:21;;;;;;;25.98;13.98;;;-4.40;99.90;;;;;;5133182;27;20027;-58
2022/03/01 06:08:47;;;;;;;19.75;12.63;;;-4.30;99.90;;;;;;5133303;27;20027;-53
2022/03/01 06:11:13;;;;;;;18.15;11.82;;;-4.30;99.90;;;;;;5133207;27;20027;-59
2022/03/01 06:13:38;;;;;;;21.17;13.40;;;-4.30;99.90;;;;;;5132969;27;20481;-57
2022/03/01 06:16:05;;;;;;;26.65;12.82;;;-4.20;99.90;;;;;;5133455;27;20052;-59
2022/03/01 06:18:31;;;;;;;21.17;12.73;;;-4.20;99.90;;;;;;5110965;28;20456;-58
2022/03/01 06:20:59;;;;;;;18.52;11.60;;;-4.10;99.90;;;;;;5112589;28;20023;-58
2022/03/01 06:23:25;;;;;;;18.75;10.40;;;-4.10;99.90;;;;;;5112480;28;20034;-59
2022/03/01 06:25:50;;;;;;;22.05;11.23;;;-4.10;99.90;;;;;;5111565;28;20019;-58
2022/03/01 06:28:17;;;;;;;21.02;11.90;;;-4.10;99.90;;;;;;5112015;28;20081;-60
2022/03/01 06:30:42;;;;;;;18.45;10.80;;;-4.00;99.90;;;;;;5112368;28;20080;-59
2022/03/01 06:33:08;;;;;;;19.30;12.13;;;-4.00;99.90;;;;;;5112152;28;20448;-58
2022/03/01 06:35:34;;;;;;;15.65;11.07;;;-3.90;99.90;;;;;;5112300;28;20102;-57
2022/03/01 06:38:00;;;;;;;18.70;11.43;;;-3.80;99.90;;;;;;5112324;28;20098;-59
2022/03/01 06:40:28;;;;;;;22.58;14.00;;;-3.70;99.90;;;;;;5112078;28;20108;-59
2022/03/01 06:42:55;;;;;;;21.85;11.13;;;-3.60;99.90;;;;;;5112527;28;20099;-59
2022/03/01 06:45:20;;;;;;;18.10;10.90;;;-3.60;99.90;;;;;;5111983;28;20537;-59
2022/03/01 06:47:46;;;;;;;18.05;11.77;;;-3.50;99.90;;;;;;5111912;28;20024;-60
2022/03/01 06:50:12;;;;;;;25.75;12.65;;;-3.50;99.90;;;;;;5112037;28;20055;-58
2022/03/01 06:52:38;;;;;;;18.05;11.82;;;-3.40;99.90;;;;;;5112050;28;20237;-57
2022/03/01 06:55:06;;;;;;;17.70;10.48;;;-3.30;99.90;;;;;;5111855;28;20023;-59
2022/03/01 06:57:31;;;;;;;18.20;11.35;;;-3.20;99.90;;;;;;5111676;28;20051;-58
2022/03/01 06:59:57;;;;;;;20.08;9.68;;;-3.10;99.90;;;;;;5111882;28;20058;-59
2022/03/01 07:02:26;;;;;;;20.77;10.52;;;-3.10;99.90;;;;;;5111531;28;20491;-57
2022/03/01 07:04:53;;;;;;;19.80;11.07;;;-3.00;99.90;;;;;;5111688;28;20355;-59
2022/03/01 07:07:18;;;;;;;17.25;10.90;;;-2.90;99.90;;;;;;5111655;28;20031;-58
2022/03/01 07:09:44;;;;;;;15.10;10.80;;;-2.80;99.90;;;;;;5110229;28;20027;-55
2022/03/01 07:12:10;;;;;;;15.13;9.75;;;-2.80;99.90;;;;;;5111537;28;20031;-58
2022/03/01 07:14:36;;;;;;;18.85;11.75;;;-2.70;99.90;;;;;;5111350;28;20027;-58
2022/03/01 07:17:01;;;;;;;19.60;11.27;;;-2.70;99.90;;;;;;5111356;28;20027;-57
2022/03/01 07:19:27;;;;;;;17.63;11.57;;;-2.70;99.90;;;;;;5131643;27;20031;-55
2022/03/01 07:21:53;;;;;;;37.10;11.43;;;-2.60;99.90;;;;;;5132097;27;20056;-56
2022/03/01 07:24:18;;;;;;;17.45;10.90;;;-2.50;99.90;;;;;;5131714;27;20421;-56
2022/03/01 07:26:44;;;;;;;18.63;11.07;;;-2.50;99.90;;;;;;5131829;27;20034;-58
2022/03/01 07:29:10;;;;;;;18.90;10.70;;;-2.40;99.90;;;;;;5131831;27;20038;-59
2022/03/01 07:31:35;;;;;;;18.48;10.60;;;-2.30;99.90;;;;;;5131461;27;20027;-56
2022/03/01 07:34:02;;;;;;;18.15;10.90;;;-2.40;99.90;;;;;;5131796;27;20047;-57
2022/03/01 07:36:27;;;;;;;15.77;10.98;;;-2.30;99.90;;;;;;5131329;27;20034;-59
2022/03/01 07:38:54;;;;;;;17.27;10.75;;;-2.20;99.90;;;;;;5131535;27;20491;-57
2022/03/01 07:41:19;;;;;;;20.42;10.18;;;-2.10;99.90;;;;;;5131591;27;20015;-59
2022/03/01 07:43:45;;;;;;;16.75;10.80;;;-2.10;99.90;;;;;;5131639;27;20033;-57
2022/03/01 07:46:13;;;;;;;80.85;42.50;;;-2.00;99.90;;;;;;5131492;27;20011;-55
2022/03/01 07:48:40;;;;;;;23.80;15.75;;;-1.90;99.90;;;;;;5131482;27;20053;-58
2022/03/01 07:51:06;;;;;;;17.38;11.43;;;-1.80;99.90;;;;;;5131548;27;20070;-59
2022/03/01 07:53:32;;;;;;;18.05;11.52;;;-1.70;99.90;;;;;;5131203;27;20031;-58
2022/03/01 07:55:58;;;;;;;18.17;10.73;;;-1.70;99.90;;;;;;5131542;27;20552;-58
2022/03/01 07:58:23;;;;;;;32.53;13.88;;;-1.60;99.90;;;;;;5131486;27;20025;-59
2022/03/01 08:00:49;;;;;;;15.32;11.32;;;-1.50;99.90;;;;;;5131503;27;20054;-58
2022/03/01 08:03:15;;;;;;;29.48;18.33;;;-1.50;99.90;;;;;;5131388;28;20023;-57
2022/03/01 08:05:41;;;;;;;17.48;12.60;;;-1.40;99.90;;;;;;5131254;28;20019;-59
2022/03/01 08:08:08;;;;;;;17.30;13.68;;;-1.30;99.90;;;;;;5131446;28;20160;-56
2022/03/01 08:10:33;;;;;;;22.67;11.60;;;-1.30;99.90;;;;;;5131071;28;20051;-58
2022/03/01 08:12:59;;;;;;;17.98;10.80;;;-1.20;99.90;;;;;;5131211;28;20050;-59
2022/03/01 08:15:26;;;;;;;17.17;9.15;;;-1.20;99.90;;;;;;5131074;28;20397;-58
2022/03/01 08:17:54;;;;;;;16.10;11.30;;;-1.20;99.90;;;;;;5131317;28;20375;-59
2022/03/01 08:20:21;;;;;;;19.45;10.77;;;-1.00;99.90;;;;;;5131188;28;20390;-59
2022/03/01 08:22:47;;;;;;;19.42;10.60;;;-0.90;99.90;;;;;;5131189;28;20096;-58
2022/03/01 08:25:13;;;;;;;22.27;10.73;;;-0.90;99.90;;;;;;5131290;28;20057;-59
2022/03/01 08:27:39;;;;;;;18.73;10.10;;;-0.90;99.90;;;;;;5131042;28;20035;-59
2022/03/01 08:30:06;;;;;;;19.65;10.43;;;-0.80;99.90;;;;;;5131093;28;20023;-59
2022/03/01 08:32:32;;;;;;;16.70;10.50;;;-0.80;99.90;;;;;;5112559;28;20027;-60
2022/03/01 08:34:57;;;;;;;17.63;10.63;;;-0.70;99.90;;;;;;5131059;28;20023;-59
2022/03/01 08:37:28;;;;;;;12.82;9.00;;;-0.50;99.90;;;;;;5130941;28;20034;-59
2022/03/01 08:39:54;;;;;;;16.05;10.52;;;-0.50;99.90;;;;;;5131158;28;20019;-60
2022/03/01 08:42:20;;;;;;;20.08;11.60;;;-0.40;99.90;;;;;;5130854;28;20022;-60
2022/03/01 08:44:46;;;;;;;17.38;11.65;;;-0.30;99.90;;;;;;5130898;28;20023;-59
2022/03/01 08:47:11;;;;;;;17.52;11.85;;;-0.20;99.90;;;;;;5130970;28;20027;-59
2022/03/01 08:49:37;;;;;;;18.60;12.13;;;0.00;99.90;;;;;;5133441;27;20034;-60
2022/03/01 08:52:03;;;;;;;18.27;11.63;;;-0.10;99.90;;;;;;5134886;27;20043;-60
2022/03/01 08:54:28;;;;;;;19.25;11.25;;;-0.10;99.90;;;;;;5134692;27;20035;-60
2022/03/01 08:56:54;;;;;;;26.55;12.90;;;0.00;99.90;;;;;;5116319;27;20023;-60
2022/03/01 08:59:21;;;;;;;19.30;10.80;;;0.10;99.90;;;;;;5134494;27;20030;-60
2022/03/01 09:01:46;;;;;;;17.63;10.68;;;0.20;99.90;;;;;;5134737;27;20398;-60
2022/03/01 09:04:12;;;;;;;21.58;11.63;;;0.20;99.90;;;;;;5134656;27;20028;-59
2022/03/01 09:06:38;;;;;;;21.13;10.15;;;0.40;99.90;;;;;;5134491;27;20027;-59
2022/03/01 09:09:03;;;;;;;19.77;12.63;;;0.70;99.90;;;;;;5134605;27;20497;-60
2022/03/01 09:11:29;;;;;;;36.85;19.67;;;0.80;99.90;;;;;;5134221;27;20378;-59
2022/03/01 09:13:54;;;;;;;19.20;13.38;;;0.90;99.90;;;;;;5115919;27;20035;-59
2022/03/01 09:16:20;;;;;;;19.95;12.90;;;1.00;99.50;;;;;;5134189;27;20031;-60
2022/03/01 09:18:46;;;;;;;25.77;14.43;;;1.00;99.40;;;;;;5134125;27;20501;-59
2022/03/01 09:21:12;;;;;;;17.83;13.95;;;1.20;99.90;;;;;;5134257;27;20470;-58
2022/03/01 09:23:37;;;;;;;28.48;14.07;;;1.30;99.50;;;;;;5134057;27;20469;-60
2022/03/01 09:26:03;;;;;;;20.60;12.23;;;1.40;98.80;;;;;;5134232;27;20026;-59
2022/03/01 09:28:29;;;;;;;24.85;10.80;;;1.40;97.80;;;;;;5133967;27;20027;-58
2022/03/01 09:30:55;;;;;;;21.98;11.93;;;1.40;97.90;;;;;;5134102;27;20015;-57
2022/03/01 09:33:21;;;;;;;18.48;10.38;;;1.60;98.50;;;;;;5134235;27;20034;-59
2022/03/01 09:35:47;;;;;;;18.85;9.60;;;1.60;97.10;;;;;;5134002;27;20020;-59
2022/03/01 09:38:13;;;;;;;15.25;9.77;;;1.80;97.30;;;;;;5134011;27;20299;-59
2022/03/01 09:40:38;;;;;;;14.95;10.85;;;1.80;96.10;;;;;;5115427;27;20442;-59
2022/03/01 09:43:05;;;;;;;15.68;8.93;;;2.10;97.20;;;;;;5133907;27;20091;-59
2022/03/01 09:45:31;;;;;;;41.22;11.38;;;2.50;95.90;;;;;;5115178;27;20047;-60
2022/03/01 09:47:57;;;;;;;17.00;8.48;;;2.30;94.70;;;;;;5133936;27;20020;-58
2022/03/01 09:50:27;;;;;;;20.15;10.25;;;2.30;94.10;;;;;;5133667;27;20435;-59
2022/03/01 09:52:59;;;;;;;18.38;9.48;;;2.40;93.90;;;;;;5133695;27;20570;-59
2022/03/01 09:55:26;;;;;;;32.63;11.35;;;2.80;94.60;;;;;;5133497;27;20106;-60
2022/03/01 09:57:51;;;;;;;21.08;14.35;;;3.00;93.50;;;;;;5133902;27;20477;-59
2022/03/01 10:00:18;;;;;;;16.10;11.60;;;3.10;93.20;;;;;;5133390;27;20023;-59
2022/03/01 10:02:44;;;;;;;16.00;11.32;;;3.30;93.00;;;;;;5133547;27;20394;-60
2022/03/01 10:05:14;;;;;;;17.33;12.20;;;3.30;91.80;;;;;;5115005;27;20490;-59
2022/03/01 10:07:45;;;;;;;15.38;9.30;;;3.30;90.50;;;;;;5133319;27;20098;-59
2022/03/01 10:10:16;;;;;;;42.33;27.10;;;3.70;90.90;;;;;;5133247;27;20023;-60
2022/03/01 10:12:55;;;;;;;30.10;10.48;;;3.70;87.10;;;;;;5133458;27;20473;-59
2022/03/01 10:15:28;;;;;;;19.25;9.85;;;3.90;87.70;;;;;;5133055;27;20023;-59
2022/03/01 10:17:53;;;;;;;21.35;11.55;;;3.90;86.20;;;;;;5133207;27;20572;-59
2022/03/01 10:20:20;;;;;;;16.80;9.68;;;4.20;85.40;;;;;;5133171;27;20046;-60
2022/03/01 10:22:53;;;;;;;12.68;9.07;;;4.20;84.20;;;;;;5133087;27;20035;-60
2022/03/01 10:25:22;;;;;;;33.67;8.70;;;4.30;83.00;;;;;;5132962;27;20423;-60
2022/03/01 10:27:50;;;;;;;21.33;9.43;;;4.60;85.20;;;;;;5114595;27;20534;-59
2022/03/01 10:30:30;;;;;;;19.08;10.13;;;4.70;81.00;;;;;;5132915;27;20030;-60
2022/03/01 10:33:14;;;;;;;13.90;9.05;;;4.90;84.60;;;;;;5132979;27;20063;-60
2022/03/01 10:35:42;;;;;;;17.23;9.48;;;5.40;80.20;;;;;;5132877;27;20038;-60
2022/03/01 10:38:09;;;;;;;20.83;8.40;;;6.20;75.80;;;;;;5132915;27;20418;-60
2022/03/01 10:40:37;;;;;;;20.00;7.80;;;6.90;72.90;;;;;;5132073;27;20480;-60
2022/03/01 10:43:11;;;;;;;19.35;8.05;;;8.40;62.90;;;;;;5133159;27;20023;-60
2022/03/01 10:45:39;;;;;;;17.13;8.40;;;9.00;57.10;;;;;;5132690;27;20023;-60
2022/03/01 10:48:08;;;;;;;9.18;6.80;;;10.20;53.90;;;;;;5113831;27;20465;-60
2022/03/01 10:50:34;;;;;;;13.27;8.07;;;10.50;49.70;;;;;;5132003;27;20030;-60
2022/03/01 10:53:00;;;;;;;18.33;6.45;;;11.10;47.10;;;;;;5132446;27;20019;-60
2022/03/01 10:55:31;;;;;;;9.55;6.88;;;11.60;43.80;;;;;;5132153;27;20091;-60
2022/03/01 10:58:01;;;;;;;12.68;7.82;;;12.00;44.90;;;;;;5132406;27;20022;-61
2022/03/01 11:00:27;;;;;;;9.98;8.07;;;13.60;43.50;;;;;;5132333;27;20492;-60
2022/03/01 11:02:53;;;;;;;16.98;7.55;;;14.00;40.60;;;;;;5132350;27;20023;-60
2022/03/01 11:05:19;;;;;;;19.13;7.50;;;14.00;38.70;;;;;;5132083;27;20042;-60
2022/03/01 11:07:48;;;;;;;12.60;7.55;;;12.90;39.20;;;;;;5132052;27;20035;-61
2022/03/01 11:10:16;;;;;;;15.15;7.45;;;13.20;39.30;;;;;;5132248;27;20027;-61
2022/03/01 11:12:44;;;;;;;11.55;7.35;;;12.40;40.40;;;;;;5131664;27;20023;-61
2022/03/01 11:15:15;;;;;;;14.30;7.78;;;13.10;40.20;;;;;;5132116;27;20027;-61
2022/03/01 11:17:47;;;;;;;11.85;7.72;;;13.20;38.40;;;;;;5131913;27;20043;-61
2022/03/01 11:20:23;;;;;;;14.57;6.90;;;13.00;41.20;;;;;;5131931;27;20371;-61
2022/03/01 11:22:55;;;;;;;13.43;7.63;;;14.10;39.30;;;;;;5131822;27;20261;-61
2022/03/01 11:25:23;;;;;;;10.98;7.38;;;13.40;39.20;;;;;;5131775;27;20029;-61
2022/03/01 11:27:52;;;;;;;9.13;7.10;;;13.50;38.90;;;;;;5131934;27;20034;-61
2022/03/01 11:30:31;;;;;;;16.08;6.35;;;13.90;38.90;;;;;;5131799;27;20023;-61
2022/03/01 11:32:57;;;;;;;10.18;6.28;;;14.40;37.10;;;;;;5131883;27;20379;-61
2022/03/01 11:35:26;;;;;;;12.20;6.55;;;14.50;36.40;;;;;;5131563;27;20027;-61
2022/03/01 11:38:06;;;;;;;10.73;7.10;;;14.50;36.10;;;;;;5131791;27;20023;-61
2022/03/01 11:40:37;;;;;;;17.70;7.18;;;13.40;37.60;;;;;;5131651;27;20117;-61
2022/03/01 11:43:16;;;;;;;11.60;7.30;;;14.60;37.60;;;;;;5113300;27;20054;-61
2022/03/01 11:45:48;;;;;;;9.95;6.07;;;13.40;37.40;;;;;;5131824;27;20023;-61
2022/03/01 11:48:19;;;;;;;22.80;12.20;;;13.30;37.60;;;;;;5131381;27;20021;-61
2022/03/01 11:51:03;;;;;;;17.05;8.07;;;13.10;36.60;;;;;;5131504;27;20018;-61
2022/03/01 11:53:33;;;;;;;15.90;7.13;;;13.60;36.90;;;;;;5113932;27;20024;-61
2022/03/01 11:56:02;;;;;;;12.32;6.15;;;14.60;36.20;;;;;;5131565;27;20024;-61
2022/03/01 11:58:28;;;;;;;10.63;6.25;;;13.90;34.40;;;;;;5112990;27;20355;-61
2022/03/01 12:00:56;;;;;;;9.80;5.65;;;14.60;34.70;;;;;;5131535;27;20296;-61
2022/03/01 12:03:26;;;;;;;10.40;6.38;;;15.70;34.40;;;;;;5131453;28;20011;-61
2022/03/01 12:05:53;;;;;;;9.73;6.40;;;15.00;34.20;;;;;;5131185;28;20114;-61
2022/03/01 12:08:20;;;;;;;10.52;6.18;;;15.20;34.90;;;;;;5131143;28;20031;-61
2022/03/01 12:11:05;;;;;;;19.55;6.35;;;15.80;32.80;;;;;;5131415;28;20020;-61
2022/03/01 12:13:38;;;;;;;15.38;6.15;;;15.80;32.90;;;;;;5131154;28;20019;-61
2022/03/01 12:16:05;;;;;;;22.45;6.20;;;16.20;32.40;;;;;;5131377;28;20207;-61
2022/03/01 12:18:41;;;;;;;11.43;5.25;;;16.10;32.70;;;;;;5130820;28;20032;-61
2022/03/01 12:21:10;;;;;;;7.72;5.97;;;15.80;33.50;;;;;;5131239;28;20098;-61
2022/03/01 12:23:37;;;;;;;7.28;4.85;;;16.10;33.40;;;;;;5132179;27;20034;-61
2022/03/01 12:26:06;;;;;;;10.27;5.95;;;15.90;34.10;;;;;;5135510;27;20023;-62
2022/03/01 12:28:47;;;;;;;21.05;5.97;;;15.40;33.30;;;;;;5135148;27;20019;-61
2022/03/01 12:31:18;;;;;;;8.77;5.78;;;15.90;33.50;;;;;;5116800;27;20076;-61
2022/03/01 12:33:52;;;;;;;12.80;6.43;;;15.50;33.00;;;;;;5135159;27;20023;-61